createdAt,value
2023-05-17T00:01:58.261Z,47.63
2023-05-17T00:05:01.840Z,47.63
2023-05-17T00:08:05.513Z,52.28
2023-05-17T00:11:08.960Z,51.53
2023-05-17T00:14:12.568Z,46.97
2023-05-17T00:17:16.122Z,54.33
2023-05-17T00:20:19.489Z,46.57
2023-05-17T00:23:23.129Z,51.88
2023-05-17T00:26:26.245Z,56.55
2023-05-17T00:29:29.689Z,59.42
2023-05-17T00:32:32.833Z,48.00
2023-05-17T00:35:37.601Z,49.40
2023-05-17T00:38:40.634Z,57.25
2023-05-17T00:41:45.306Z,49.25
2023-05-17T00:44:48.510Z,54.65
2023-05-17T00:47:52.072Z,46.07
2023-05-17T00:50:56.714Z,51.40
2023-05-17T00:54:00.743Z,50.60
2023-05-17T00:57:05.882Z,61.20
2023-05-17T01:00:11.003Z,49.80
2023-05-17T01:03:14.854Z,56.47
2023-05-17T01:06:18.408Z,48.03
2023-05-17T01:09:21.641Z,59.13
2023-05-17T01:12:51.468Z,53.63
2023-05-17T01:16:08.574Z,65.82
2023-05-17T01:19:45.870Z,64.00
2023-05-17T01:23:19.769Z,65.40
2023-05-17T01:26:40.670Z,51.20
2023-05-17T01:29:46.284Z,62.00
2023-05-17T01:32:52.066Z,70.35
2023-05-17T01:35:55.228Z,58.87
2023-05-17T01:39:00.711Z,55.67
2023-05-17T01:42:10.446Z,49.47
2023-05-17T01:45:23.983Z,48.85
2023-05-17T01:48:35.181Z,44.78
2023-05-17T01:52:03.459Z,47.73
2023-05-17T01:55:27.274Z,53.77
2023-05-17T01:58:33.972Z,61.03
2023-05-17T02:01:38.783Z,50.88
2023-05-17T02:04:42.157Z,45.85
2023-05-17T02:07:45.459Z,47.37
2023-05-17T02:10:48.813Z,43.30
2023-05-17T02:13:52.478Z,50.15
2023-05-17T02:16:55.690Z,50.17
2023-05-17T02:19:59.114Z,48.97
2023-05-17T02:23:02.399Z,44.00
2023-05-17T02:26:06.056Z,45.37
2023-05-17T02:29:13.242Z,44.38
2023-05-17T02:32:16.716Z,36.85
2023-05-17T02:35:21.016Z,43.70
2023-05-17T02:38:27.126Z,46.27
2023-05-17T02:41:30.238Z,47.17
2023-05-17T02:44:34.160Z,37.70
2023-05-17T02:47:38.509Z,40.12
2023-05-17T02:50:42.091Z,49.97
2023-05-17T02:53:45.506Z,44.83
2023-05-17T02:56:49.277Z,78.97
2023-05-17T02:59:53.059Z,56.97
2023-05-17T03:02:56.718Z,44.65
2023-05-17T03:06:03.054Z,53.75
2023-05-17T03:09:07.407Z,45.93
2023-05-17T03:12:10.719Z,48.93
2023-05-17T03:15:14.415Z,47.85
2023-05-17T03:18:17.770Z,46.75
2023-05-17T03:21:21.264Z,45.92
2023-05-17T03:24:24.678Z,44.37
2023-05-17T03:27:28.464Z,40.13
2023-05-17T03:30:31.827Z,41.10
2023-05-17T03:33:35.705Z,37.92
2023-05-17T03:36:40.552Z,38.00
2023-05-17T03:39:44.247Z,34.93
2023-05-17T03:42:48.633Z,39.70
2023-05-17T03:45:52.158Z,45.47
2023-05-17T03:48:55.252Z,40.70
2023-05-17T03:51:58.788Z,46.72
2023-05-17T03:55:01.903Z,48.03
2023-05-17T03:58:07.411Z,41.33
2023-05-17T04:01:10.969Z,45.97
2023-05-17T04:04:14.579Z,35.67
2023-05-17T04:07:18.675Z,40.75
2023-05-17T04:10:22.629Z,35.30
2023-05-17T04:13:26.124Z,42.67
2023-05-17T04:16:30.770Z,45.63
2023-05-17T04:19:34.325Z,35.30
2023-05-17T04:22:37.906Z,37.10
2023-05-17T04:25:41.448Z,37.10
2023-05-17T04:28:45.144Z,36.27
2023-05-17T04:31:49.790Z,37.42
2023-05-17T04:34:53.644Z,42.55
2023-05-17T04:37:59.059Z,40.45
2023-05-17T04:41:04.803Z,35.00
2023-05-17T04:44:08.284Z,37.47
2023-05-17T04:47:12.164Z,36.22
2023-05-17T04:50:15.380Z,32.47
2023-05-17T04:53:18.803Z,32.42
2023-05-17T04:56:22.974Z,37.47
2023-05-17T04:59:27.154Z,31.57
2023-05-17T05:02:30.521Z,30.80
2023-05-17T05:05:34.419Z,24.45
2023-05-17T05:08:38.421Z,26.08
2023-05-17T05:11:42.985Z,33.13
2023-05-17T05:14:46.238Z,29.50
2023-05-17T05:17:50.841Z,29.12
2023-05-17T05:20:55.754Z,25.27
2023-05-17T05:24:00.457Z,27.27
2023-05-17T05:27:07.038Z,23.57
2023-05-17T05:30:12.141Z,24.13
2023-05-17T05:33:15.522Z,27.37
2023-05-17T05:36:19.125Z,23.02
2023-05-17T05:39:23.151Z,18.62
2023-05-17T05:42:27.794Z,20.70
2023-05-17T05:45:32.175Z,19.03
2023-05-17T05:48:39.692Z,21.80
2023-05-17T05:51:43.299Z,24.10
2023-05-17T05:54:48.327Z,21.98
2023-05-17T05:57:51.432Z,20.17
2023-05-17T06:00:57.461Z,19.27
2023-05-17T06:04:01.639Z,18.75
2023-05-17T06:07:05.167Z,22.27
2023-05-17T06:10:08.925Z,21.73
2023-05-17T06:13:12.689Z,20.47
2023-05-17T06:16:16.160Z,22.33
2023-05-17T06:19:20.440Z,17.73
2023-05-17T06:22:24.028Z,18.87
2023-05-17T06:25:27.233Z,16.00
2023-05-17T06:28:30.607Z,25.07
2023-05-17T06:31:34.354Z,14.50
2023-05-17T06:34:37.672Z,16.62
2023-05-17T06:37:41.115Z,17.40
2023-05-17T06:40:44.413Z,19.65
2023-05-17T06:43:47.997Z,23.27
2023-05-17T06:46:51.543Z,15.97
2023-05-17T06:49:54.920Z,16.23
2023-05-17T06:52:58.335Z,14.93
2023-05-17T06:56:01.682Z,14.87
2023-05-17T06:59:05.044Z,13.13
2023-05-17T07:02:08.332Z,14.87
2023-05-17T07:05:12.540Z,14.25
2023-05-17T07:08:15.901Z,11.77
2023-05-17T07:11:19.243Z,18.30
2023-05-17T07:14:22.377Z,15.70
2023-05-17T07:17:25.992Z,15.90
2023-05-17T07:20:30.293Z,16.73
2023-05-17T07:23:33.712Z,14.10
2023-05-17T07:26:36.833Z,16.50
2023-05-17T07:29:42.435Z,15.60
2023-05-17T07:32:46.781Z,18.17
2023-05-17T07:35:50.794Z,18.35
2023-05-17T07:38:53.984Z,20.48
2023-05-17T07:41:57.841Z,17.75
2023-05-17T07:45:00.947Z,19.67
2023-05-17T07:48:04.631Z,17.73
2023-05-17T07:51:07.955Z,19.08
2023-05-17T07:54:23.632Z,23.92
2023-05-17T07:57:27.755Z,19.12
2023-05-17T08:00:31.523Z,22.03
2023-05-17T08:03:34.816Z,22.33
2023-05-17T08:06:37.904Z,22.20
2023-05-17T08:09:43.750Z,17.98
2023-05-17T08:12:47.027Z,18.62
2023-05-17T08:15:53.598Z,20.83
2023-05-17T08:18:59.174Z,22.00
2023-05-17T08:22:02.681Z,26.50
2023-05-17T08:25:06.240Z,23.05
2023-05-17T08:28:12.029Z,20.52
2023-05-17T08:31:15.182Z,21.33
2023-05-17T08:34:18.510Z,22.00
2023-05-17T08:37:21.737Z,27.00
2023-05-17T08:40:25.405Z,24.77
2023-05-17T08:43:29.280Z,25.85
2023-05-17T08:46:33.897Z,29.43
2023-05-17T08:49:37.947Z,26.17
2023-05-17T08:52:46.321Z,23.40
2023-05-17T08:55:51.715Z,21.65
2023-05-17T08:58:57.886Z,25.42
2023-05-17T09:02:02.266Z,25.40
2023-05-17T09:05:06.921Z,28.17
2023-05-17T09:08:14.289Z,23.30
2023-05-17T09:11:32.965Z,23.35
2023-05-17T09:14:36.508Z,26.90
2023-05-17T09:17:41.473Z,23.17
2023-05-17T09:20:51.694Z,23.43
2023-05-17T09:27:03.593Z,22.85
2023-05-17T09:30:10.829Z,20.33
2023-05-17T09:33:17.703Z,18.20
2023-05-17T09:36:23.908Z,19.63
2023-05-17T09:39:27.189Z,18.30
2023-05-17T09:42:30.699Z,22.05
2023-05-17T09:45:34.458Z,16.62
2023-05-17T09:48:39.332Z,18.23
2023-05-17T09:51:44.502Z,14.37
2023-05-17T09:54:53.644Z,16.23
2023-05-17T09:58:03.037Z,14.68
2023-05-17T10:01:07.709Z,17.40
2023-05-17T10:04:12.874Z,15.20
2023-05-17T10:07:19.872Z,15.33
2023-05-17T10:10:23.584Z,16.27
2023-05-17T10:13:34.703Z,13.93
2023-05-17T10:16:39.132Z,14.27
2023-05-17T10:19:42.381Z,15.33
2023-05-17T10:22:47.561Z,13.47
2023-05-17T10:25:51.127Z,14.65
2023-05-17T10:29:00.791Z,13.77
2023-05-17T10:32:08.243Z,20.17
2023-05-17T10:35:15.286Z,14.47
2023-05-17T10:38:20.355Z,18.00
2023-05-17T10:41:27.858Z,15.18
2023-05-17T10:44:36.749Z,14.18
2023-05-17T10:47:46.374Z,13.60
2023-05-17T10:51:00.667Z,17.33
2023-05-17T10:54:08.977Z,14.77
2023-05-17T11:00:55.609Z,11.68
2023-05-17T11:04:24.297Z,12.70
2023-05-17T11:07:32.356Z,11.70
2023-05-17T11:10:36.510Z,11.27
2023-05-17T11:13:56.730Z,10.00
2023-05-17T11:17:13.837Z,10.27
2023-05-17T11:20:17.524Z,9.95
2023-05-17T11:23:23.289Z,8.93
2023-05-17T11:26:34.912Z,9.47
2023-05-17T11:29:41.831Z,10.57
2023-05-17T11:32:54.419Z,9.52
2023-05-17T11:35:57.851Z,12.80
2023-05-17T11:39:15.575Z,15.73
2023-05-17T11:42:26.338Z,11.90
2023-05-17T11:45:41.359Z,12.40
2023-05-17T11:48:46.616Z,11.10
2023-05-17T11:51:50.704Z,12.10
2023-05-17T11:54:54.487Z,10.13
2023-05-17T11:57:58.896Z,11.97
2023-05-17T12:01:03.807Z,11.95
2023-05-17T12:04:07.330Z,10.50
2023-05-17T12:07:14.598Z,8.90
2023-05-17T12:10:18.572Z,10.27
2023-05-17T12:13:21.667Z,9.57
2023-05-17T12:16:26.123Z,10.32
2023-05-17T12:19:30.131Z,9.88
2023-05-17T12:22:34.387Z,13.35
2023-05-17T12:25:37.422Z,9.40
2023-05-17T12:28:45.065Z,10.27
2023-05-17T12:31:52.423Z,10.45
2023-05-17T12:34:56.815Z,9.02
2023-05-17T12:38:00.719Z,7.82
2023-05-17T12:41:05.350Z,7.00
2023-05-17T12:47:15.819Z,7.47
2023-05-17T12:50:30.632Z,8.35
2023-05-17T12:53:42.422Z,9.68
2023-05-17T12:56:45.617Z,6.67
2023-05-17T12:59:58.684Z,9.50
2023-05-17T13:03:02.084Z,8.32
2023-05-17T13:06:09.603Z,7.87
2023-05-17T13:09:13.495Z,10.07
2023-05-17T13:12:24.637Z,10.57
2023-05-17T13:15:32.414Z,7.33
2023-05-17T13:18:52.522Z,7.62
2023-05-17T13:21:55.598Z,9.93
2023-05-17T13:24:59.026Z,7.80
2023-05-17T13:28:03.166Z,10.17
2023-05-17T13:31:06.752Z,9.07
2023-05-17T13:34:10.304Z,8.68
2023-05-17T13:37:13.725Z,8.68
2023-05-17T13:40:16.841Z,8.68
2023-05-17T13:43:20.232Z,8.23
2023-05-17T13:46:25.095Z,8.47
2023-05-17T13:49:28.788Z,9.20
2023-05-17T13:52:31.976Z,7.78
2023-05-17T13:55:35.332Z,9.02
2023-05-17T13:58:38.563Z,7.93
2023-05-17T14:01:42.289Z,9.77
2023-05-17T14:04:45.844Z,7.35
2023-05-17T14:07:48.832Z,8.98
2023-05-17T14:10:52.204Z,9.77
2023-05-17T14:13:57.165Z,7.53
2023-05-17T14:17:02.072Z,7.73
2023-05-17T14:20:05.982Z,9.80
2023-05-17T14:23:09.784Z,8.32
2023-05-17T14:26:13.022Z,9.00
2023-05-17T14:29:16.968Z,8.30
2023-05-17T14:32:20.159Z,8.83
2023-05-17T14:35:24.096Z,8.80
2023-05-17T14:38:27.185Z,8.25
2023-05-17T14:41:30.597Z,9.77
2023-05-17T14:44:34.844Z,7.13
2023-05-17T14:47:38.368Z,6.63
2023-05-17T14:50:41.802Z,7.90
2023-05-17T14:53:45.260Z,8.40
2023-05-17T14:56:49.159Z,9.40
2023-05-17T14:59:52.872Z,8.50
2023-05-17T15:02:56.332Z,8.30
2023-05-17T15:06:03.258Z,9.05
2023-05-17T15:09:12.515Z,8.73
2023-05-17T15:12:15.951Z,5.47
2023-05-17T15:15:22.242Z,7.83
2023-05-17T15:18:26.101Z,5.17
2023-05-17T15:21:29.882Z,7.72
2023-05-17T15:24:33.496Z,4.97
2023-05-17T15:27:37.221Z,8.05
2023-05-17T15:30:42.061Z,7.93
2023-05-17T15:33:45.328Z,5.60
2023-05-17T15:36:48.851Z,28.95
2023-05-17T15:39:52.176Z,7.62
2023-05-17T15:42:55.756Z,6.45
2023-05-17T15:45:59.136Z,3.97
2023-05-17T15:49:02.511Z,5.63
2023-05-17T15:52:06.535Z,5.65
2023-05-17T15:55:11.028Z,4.35
2023-05-17T15:58:14.212Z,3.55
2023-05-17T16:01:17.617Z,4.23
2023-05-17T16:04:21.495Z,4.20
2023-05-17T16:07:26.566Z,5.30
2023-05-17T16:10:30.044Z,5.30
2023-05-17T16:13:34.246Z,3.50
2023-05-17T16:16:37.581Z,4.13
2023-05-17T16:19:41.626Z,5.23
2023-05-17T16:22:46.466Z,3.80
2023-05-17T16:25:49.886Z,3.40
2023-05-17T16:28:53.507Z,3.50
2023-05-17T16:31:56.851Z,3.93
2023-05-17T16:35:01.347Z,7.60
2023-05-17T16:38:04.450Z,4.05
2023-05-17T16:41:08.175Z,4.05
2023-05-17T16:44:11.351Z,6.55
2023-05-17T16:47:15.011Z,3.80
2023-05-17T16:50:18.156Z,3.27
2023-05-17T16:53:21.758Z,3.85
2023-05-17T16:56:25.098Z,3.80
2023-05-17T16:59:28.498Z,5.53
2023-05-17T17:02:31.787Z,7.53
2023-05-17T17:05:35.331Z,4.83
2023-05-17T17:08:38.858Z,4.93
2023-05-17T17:11:42.395Z,7.15
2023-05-17T17:14:46.075Z,4.60
2023-05-17T17:17:49.663Z,5.13
2023-05-17T17:20:53.009Z,7.03
2023-05-17T17:23:57.400Z,7.15
2023-05-17T17:27:01.399Z,4.18
2023-05-17T17:30:06.523Z,6.05
2023-05-17T17:33:10.805Z,4.37
2023-05-17T17:36:14.501Z,3.63
2023-05-17T17:39:18.549Z,3.70
2023-05-17T17:42:22.955Z,3.67
2023-05-17T17:45:26.967Z,3.30
2023-05-17T17:48:31.535Z,4.33
2023-05-17T17:51:35.915Z,4.23
2023-05-17T17:54:42.490Z,8.23
2023-05-17T17:57:47.738Z,4.80
2023-05-17T18:00:51.724Z,7.40
2023-05-17T18:03:55.862Z,3.50
2023-05-17T18:07:02.226Z,5.07
2023-05-17T18:10:07.158Z,5.57
2023-05-17T18:13:12.260Z,11.35
2023-05-17T18:16:18.462Z,11.40
2023-05-17T18:19:23.641Z,10.93
2023-05-17T18:22:29.230Z,7.20
2023-05-17T18:25:35.365Z,7.60
2023-05-17T18:28:42.877Z,7.72
2023-05-17T18:31:48.443Z,5.30
2023-05-17T18:34:53.328Z,7.33
2023-05-17T18:38:00.369Z,7.07
2023-05-17T18:41:05.981Z,7.50
2023-05-17T18:44:14.349Z,6.28
2023-05-17T18:47:23.802Z,4.57
2023-05-17T18:50:29.886Z,4.80
2023-05-17T18:53:36.779Z,4.57
2023-05-17T18:56:41.646Z,4.97
2023-05-17T18:59:47.868Z,4.90
2023-05-17T19:02:53.486Z,6.62
2023-05-17T19:05:59.117Z,5.03
2023-05-17T19:09:05.388Z,5.43
2023-05-17T19:12:12.581Z,7.93
2023-05-17T19:15:16.850Z,6.53
2023-05-17T19:18:22.400Z,5.93
2023-05-17T19:21:29.745Z,6.33
2023-05-17T19:24:36.440Z,5.20
2023-05-17T19:27:47.935Z,5.75
2023-05-17T19:30:55.340Z,5.32
2023-05-17T19:34:17.884Z,5.50
2023-05-17T19:37:39.986Z,5.30
2023-05-17T19:40:45.954Z,6.50
2023-05-17T19:43:58.249Z,5.43
2023-05-17T19:47:09.789Z,4.70
2023-05-17T19:50:18.194Z,6.62
2023-05-17T19:53:51.553Z,4.43
2023-05-17T19:57:15.573Z,4.67
2023-05-17T20:00:20.608Z,6.55
2023-05-17T20:03:27.893Z,5.22
2023-05-17T20:06:35.567Z,5.07
2023-05-17T20:09:41.883Z,4.57
2023-05-17T20:12:46.915Z,4.73
2023-05-17T20:15:52.419Z,5.45
2023-05-17T20:19:01.421Z,4.10
2023-05-17T20:22:06.539Z,7.20
2023-05-17T20:25:10.090Z,7.67
2023-05-17T20:28:14.234Z,5.10
2023-05-17T20:31:17.995Z,6.07
2023-05-17T20:34:22.386Z,4.60
2023-05-17T20:37:25.572Z,4.70
2023-05-17T20:40:29.854Z,5.00
2023-05-17T20:43:35.167Z,7.03
2023-05-17T20:46:38.824Z,4.50
2023-05-17T20:49:41.914Z,6.20
2023-05-17T20:52:45.412Z,4.93
2023-05-17T20:55:49.414Z,4.60
2023-05-17T20:58:53.031Z,7.10
2023-05-17T21:01:56.756Z,5.18
2023-05-17T21:05:00.999Z,6.22
2023-05-17T21:08:07.563Z,4.65
2023-05-17T21:11:11.022Z,4.13
2023-05-17T21:14:14.123Z,5.33
2023-05-17T21:17:17.898Z,7.28
2023-05-17T21:20:24.415Z,5.32
2023-05-17T21:23:28.504Z,4.32
2023-05-17T21:26:31.781Z,4.70
2023-05-17T21:29:36.068Z,5.63
2023-05-17T21:32:39.349Z,4.30
2023-05-17T21:35:42.901Z,4.80
2023-05-17T21:38:46.353Z,4.60
2023-05-17T21:41:49.702Z,5.80
2023-05-17T21:44:52.764Z,7.73
2023-05-17T21:47:56.388Z,3.85
2023-05-17T21:50:59.653Z,7.93
2023-05-17T21:54:03.123Z,4.97
2023-05-17T21:57:06.320Z,4.40
2023-05-17T22:00:15.466Z,7.20
2023-05-17T22:03:18.931Z,5.60
2023-05-17T22:06:22.133Z,5.10
2023-05-17T22:09:25.689Z,4.45
2023-05-17T22:12:29.055Z,6.20
2023-05-17T22:15:33.342Z,6.20
2023-05-17T22:18:36.734Z,4.82
2023-05-17T22:21:40.430Z,4.95
2023-05-17T22:24:43.550Z,4.07
2023-05-17T22:27:47.986Z,3.80
2023-05-17T22:30:53.902Z,6.03
2023-05-17T22:33:57.532Z,5.05
2023-05-17T22:37:01.013Z,4.45
2023-05-17T22:40:06.591Z,4.65
2023-05-17T22:43:10.845Z,5.07
2023-05-17T22:46:14.265Z,4.30
2023-05-17T22:49:18.706Z,6.05
2023-05-17T22:52:22.193Z,5.35
2023-05-17T22:55:25.997Z,5.90
2023-05-17T22:58:29.429Z,5.50
2023-05-17T23:01:32.565Z,7.90
2023-05-17T23:04:38.032Z,4.55
2023-05-17T23:07:42.110Z,6.57
2023-05-17T23:10:45.805Z,7.50
2023-05-17T23:13:49.290Z,8.40
2023-05-17T23:16:52.862Z,8.68
2023-05-17T23:19:56.094Z,5.93
2023-05-17T23:22:59.747Z,6.70
2023-05-17T23:26:05.558Z,6.97
2023-05-17T23:29:10.888Z,6.40
2023-05-17T23:32:14.003Z,6.20
2023-05-17T23:35:17.528Z,8.70
2023-05-17T23:38:20.723Z,7.37
2023-05-17T23:41:25.572Z,8.73
2023-05-17T23:44:28.803Z,7.90
2023-05-17T23:47:33.769Z,6.70
2023-05-17T23:50:37.483Z,8.57
2023-05-17T23:53:42.330Z,9.55
2023-05-17T23:56:45.847Z,7.97
2023-05-17T23:59:49.750Z,6.60
